sensor_id;sensor_type;location;lat;lon;timestamp;P1;durP1;ratioP1;P2;durP2;ratioP2
4957;SDS011;2494;51.872;9.688;2022-10-26T00:02:38;20.03;;;12.00;;
4957;SDS011;2494;51.872;9.688;2022-10-26T00:05:23;18.00;;;13.57;;
4957;SDS011;2494;51.872;9.688;2022-10-26T00:08:09;27.60;;;13.43;;
4957;SDS011;2494;51.872;9.688;2022-10-26T00:10:55;21.60;;;13.40;;
4957;SDS011;2494;51.872;9.688;2022-10-26T00:13:41;24.13;;;13.80;;
4957;SDS011;2494;51.872;9.688;2022-10-26T00:16:28;26.60;;;15.93;;
4957;SDS011;2494;51.872;9.688;2022-10-26T00:19:13;21.93;;;14.13;;
4957;SDS011;2494;51.872;9.688;2022-10-26T00:21:58;23.80;;;13.60;;
4957;SDS011;2494;51.872;9.688;2022-10-26T00:24:44;26.37;;;15.80;;
4957;SDS011;2494;51.872;9.688;2022-10-26T00:27:29;32.77;;;16.20;;
4957;SDS011;2494;51.872;9.688;2022-10-26T00:30:17;66.20;;;16.60;;
4957;SDS011;2494;51.872;9.688;2022-10-26T00:33:03;79.40;;;16.40;;
4957;SDS011;2494;51.872;9.688;2022-10-26T00:35:51;275.57;;;26.83;;
4957;SDS011;2494;51.872;9.688;2022-10-26T00:38:37;227.07;;;23.60;;
4957;SDS011;2494;51.872;9.688;2022-10-26T00:41:29;423.23;;;29.90;;
4957;SDS011;2494;51.872;9.688;2022-10-26T00:47:18;327.80;;;26.50;;
4957;SDS011;2494;51.872;9.688;2022-10-26T00:50:11;155.20;;;16.27;;
4957;SDS011;2494;51.872;9.688;2022-10-26T00:52:59;296.33;;;25.90;;
4957;SDS011;2494;51.872;9.688;2022-10-26T00:55:46;237.77;;;21.43;;
4957;SDS011;2494;51.872;9.688;2022-10-26T00:58:32;226.27;;;21.93;;
4957;SDS011;2494;51.872;9.688;2022-10-26T01:01:18;139.43;;;18.23;;
4957;SDS011;2494;51.872;9.688;2022-10-26T01:04:04;150.83;;;18.47;;
4957;SDS011;2494;51.872;9.688;2022-10-26T01:06:51;130.43;;;17.63;;
4957;SDS011;2494;51.872;9.688;2022-10-26T01:09:37;127.37;;;18.10;;
4957;SDS011;2494;51.872;9.688;2022-10-26T01:12:22;87.60;;;15.93;;
4957;SDS011;2494;51.872;9.688;2022-10-26T01:15:08;123.57;;;18.50;;
4957;SDS011;2494;51.872;9.688;2022-10-26T01:17:53;96.97;;;16.33;;
4957;SDS011;2494;51.872;9.688;2022-10-26T01:20:46;73.40;;;16.60;;
4957;SDS011;2494;51.872;9.688;2022-10-26T01:23:40;87.03;;;15.73;;
4957;SDS011;2494;51.872;9.688;2022-10-26T01:32:41;108.10;;;16.00;;
4957;SDS011;2494;51.872;9.688;2022-10-26T01:35:29;110.43;;;16.33;;
4957;SDS011;2494;51.872;9.688;2022-10-26T01:38:19;103.70;;;15.67;;
4957;SDS011;2494;51.872;9.688;2022-10-26T01:41:07;97.13;;;16.40;;
4957;SDS011;2494;51.872;9.688;2022-10-26T01:43:56;95.03;;;15.70;;
4957;SDS011;2494;51.872;9.688;2022-10-26T01:46:42;99.00;;;15.20;;
4957;SDS011;2494;51.872;9.688;2022-10-26T01:49:30;65.23;;;15.57;;
4957;SDS011;2494;51.872;9.688;2022-10-26T01:52:17;72.90;;;13.73;;
4957;SDS011;2494;51.872;9.688;2022-10-26T01:55:03;59.70;;;13.67;;
4957;SDS011;2494;51.872;9.688;2022-10-26T01:57:49;42.07;;;14.10;;
4957;SDS011;2494;51.872;9.688;2022-10-26T02:00:35;44.93;;;12.50;;
4957;SDS011;2494;51.872;9.688;2022-10-26T02:03:26;42.17;;;13.80;;
4957;SDS011;2494;51.872;9.688;2022-10-26T02:06:18;49.77;;;12.70;;
4957;SDS011;2494;51.872;9.688;2022-10-26T02:09:07;35.03;;;11.27;;
4957;SDS011;2494;51.872;9.688;2022-10-26T02:11:57;63.37;;;12.90;;
4957;SDS011;2494;51.872;9.688;2022-10-26T02:14:44;33.33;;;11.83;;
4957;SDS011;2494;51.872;9.688;2022-10-26T02:17:32;67.63;;;12.10;;
4957;SDS011;2494;51.872;9.688;2022-10-26T02:20:20;44.87;;;12.27;;
4957;SDS011;2494;51.872;9.688;2022-10-26T02:23:07;40.10;;;13.33;;
4957;SDS011;2494;51.872;9.688;2022-10-26T02:25:54;30.77;;;12.07;;
4957;SDS011;2494;51.872;9.688;2022-10-26T02:28:41;23.57;;;12.07;;
4957;SDS011;2494;51.872;9.688;2022-10-26T02:31:26;32.60;;;12.00;;
4957;SDS011;2494;51.872;9.688;2022-10-26T02:34:12;33.40;;;11.10;;
4957;SDS011;2494;51.872;9.688;2022-10-26T02:37:00;23.30;;;12.37;;
4957;SDS011;2494;51.872;9.688;2022-10-26T02:39:48;29.83;;;11.30;;
4957;SDS011;2494;51.872;9.688;2022-10-26T02:42:33;29.67;;;11.40;;
4957;SDS011;2494;51.872;9.688;2022-10-26T02:45:20;16.63;;;10.80;;
4957;SDS011;2494;51.872;9.688;2022-10-26T02:48:06;18.83;;;11.43;;
4957;SDS011;2494;51.872;9.688;2022-10-26T02:50:52;29.23;;;12.20;;
4957;SDS011;2494;51.872;9.688;2022-10-26T02:53:41;28.90;;;11.43;;
4957;SDS011;2494;51.872;9.688;2022-10-26T02:56:33;16.40;;;11.80;;
4957;SDS011;2494;51.872;9.688;2022-10-26T02:59:20;19.40;;;10.90;;
4957;SDS011;2494;51.872;9.688;2022-10-26T03:02:06;19.73;;;11.70;;
4957;SDS011;2494;51.872;9.688;2022-10-26T03:04:51;29.80;;;12.17;;
4957;SDS011;2494;51.872;9.688;2022-10-26T03:07:37;28.43;;;12.10;;
4957;SDS011;2494;51.872;9.688;2022-10-26T03:10:22;25.53;;;11.90;;
4957;SDS011;2494;51.872;9.688;2022-10-26T03:13:09;75.53;;;14.73;;
4957;SDS011;2494;51.872;9.688;2022-10-26T03:15:54;42.97;;;14.00;;
4957;SDS011;2494;51.872;9.688;2022-10-26T03:18:40;72.80;;;13.73;;
4957;SDS011;2494;51.872;9.688;2022-10-26T03:21:25;34.17;;;13.30;;
4957;SDS011;2494;51.872;9.688;2022-10-26T03:24:11;117.47;;;18.30;;
4957;SDS011;2494;51.872;9.688;2022-10-26T03:26:56;108.33;;;15.47;;
4957;SDS011;2494;51.872;9.688;2022-10-26T03:29:43;47.50;;;12.73;;
4957;SDS011;2494;51.872;9.688;2022-10-26T03:32:28;76.07;;;13.60;;
4957;SDS011;2494;51.872;9.688;2022-10-26T03:35:13;38.67;;;12.00;;
4957;SDS011;2494;51.872;9.688;2022-10-26T03:37:59;41.87;;;11.73;;
4957;SDS011;2494;51.872;9.688;2022-10-26T03:40:44;35.63;;;11.20;;
4957;SDS011;2494;51.872;9.688;2022-10-26T03:43:31;22.97;;;11.90;;
4957;SDS011;2494;51.872;9.688;2022-10-26T03:46:17;26.13;;;10.73;;
4957;SDS011;2494;51.872;9.688;2022-10-26T03:49:03;32.83;;;11.77;;
4957;SDS011;2494;51.872;9.688;2022-10-26T03:51:48;23.33;;;11.80;;
4957;SDS011;2494;51.872;9.688;2022-10-26T03:54:33;21.73;;;11.37;;
4957;SDS011;2494;51.872;9.688;2022-10-26T03:57:18;27.63;;;11.07;;
4957;SDS011;2494;51.872;9.688;2022-10-26T04:00:04;22.70;;;11.93;;
4957;SDS011;2494;51.872;9.688;2022-10-26T04:02:54;21.33;;;12.30;;
4957;SDS011;2494;51.872;9.688;2022-10-26T04:05:39;22.47;;;12.57;;
4957;SDS011;2494;51.872;9.688;2022-10-26T04:08:25;19.50;;;13.20;;
4957;SDS011;2494;51.872;9.688;2022-10-26T04:11:12;27.20;;;12.57;;
4957;SDS011;2494;51.872;9.688;2022-10-26T04:13:57;24.83;;;12.77;;
4957;SDS011;2494;51.872;9.688;2022-10-26T04:16:43;36.90;;;13.17;;
4957;SDS011;2494;51.872;9.688;2022-10-26T04:19:30;27.97;;;13.40;;
4957;SDS011;2494;51.872;9.688;2022-10-26T04:22:15;34.23;;;13.40;;
4957;SDS011;2494;51.872;9.688;2022-10-26T04:25:00;23.70;;;12.10;;
4957;SDS011;2494;51.872;9.688;2022-10-26T04:27:45;18.80;;;13.50;;
4957;SDS011;2494;51.872;9.688;2022-10-26T04:30:30;22.20;;;14.73;;
4957;SDS011;2494;51.872;9.688;2022-10-26T04:33:16;22.70;;;14.23;;
4957;SDS011;2494;51.872;9.688;2022-10-26T04:36:03;24.83;;;13.77;;
4957;SDS011;2494;51.872;9.688;2022-10-26T04:38:48;20.37;;;13.27;;
4957;SDS011;2494;51.872;9.688;2022-10-26T04:41:33;20.10;;;13.23;;
4957;SDS011;2494;51.872;9.688;2022-10-26T04:44:18;18.60;;;12.83;;
4957;SDS011;2494;51.872;9.688;2022-10-26T04:47:04;21.70;;;14.30;;
4957;SDS011;2494;51.872;9.688;2022-10-26T04:49:49;21.43;;;13.90;;
4957;SDS011;2494;51.872;9.688;2022-10-26T04:52:36;21.00;;;14.60;;
4957;SDS011;2494;51.872;9.688;2022-10-26T04:55:21;30.40;;;14.20;;
4957;SDS011;2494;51.872;9.688;2022-10-26T04:58:07;21.80;;;14.27;;
4957;SDS011;2494;51.872;9.688;2022-10-26T05:00:52;21.83;;;13.80;;
4957;SDS011;2494;51.872;9.688;2022-10-26T05:03:37;20.23;;;13.93;;
4957;SDS011;2494;51.872;9.688;2022-10-26T05:06:23;20.90;;;13.43;;
4957;SDS011;2494;51.872;9.688;2022-10-26T05:09:10;22.17;;;13.33;;
4957;SDS011;2494;51.872;9.688;2022-10-26T05:11:55;23.73;;;13.60;;
4957;SDS011;2494;51.872;9.688;2022-10-26T05:14:40;18.43;;;13.67;;
4957;SDS011;2494;51.872;9.688;2022-10-26T05:17:26;22.80;;;13.30;;
4957;SDS011;2494;51.872;9.688;2022-10-26T05:20:11;22.53;;;13.43;;
4957;SDS011;2494;51.872;9.688;2022-10-26T05:22:57;18.63;;;13.60;;
4957;SDS011;2494;51.872;9.688;2022-10-26T05:25:44;17.83;;;12.90;;
4957;SDS011;2494;51.872;9.688;2022-10-26T05:28:30;19.50;;;12.47;;
4957;SDS011;2494;51.872;9.688;2022-10-26T05:31:15;19.90;;;11.70;;
4957;SDS011;2494;51.872;9.688;2022-10-26T05:34:00;17.93;;;12.67;;
4957;SDS011;2494;51.872;9.688;2022-10-26T05:36:46;18.70;;;12.97;;
4957;SDS011;2494;51.872;9.688;2022-10-26T05:39:31;16.83;;;12.17;;
4957;SDS011;2494;51.872;9.688;2022-10-26T05:42:18;16.77;;;11.80;;
4957;SDS011;2494;51.872;9.688;2022-10-26T05:45:04;13.93;;;11.53;;
4957;SDS011;2494;51.872;9.688;2022-10-26T05:47:49;17.70;;;12.50;;
4957;SDS011;2494;51.872;9.688;2022-10-26T05:50:34;20.33;;;12.33;;
4957;SDS011;2494;51.872;9.688;2022-10-26T05:53:20;16.37;;;10.80;;
4957;SDS011;2494;51.872;9.688;2022-10-26T05:56:09;18.73;;;13.07;;
4957;SDS011;2494;51.872;9.688;2022-10-26T05:59:01;17.07;;;12.00;;
4957;SDS011;2494;51.872;9.688;2022-10-26T06:01:50;16.10;;;12.00;;
4957;SDS011;2494;51.872;9.688;2022-10-26T06:04:37;16.50;;;11.57;;
4957;SDS011;2494;51.872;9.688;2022-10-26T06:07:25;13.97;;;11.40;;
4957;SDS011;2494;51.872;9.688;2022-10-26T06:10:11;16.73;;;12.60;;
4957;SDS011;2494;51.872;9.688;2022-10-26T06:12:57;17.73;;;12.73;;
4957;SDS011;2494;51.872;9.688;2022-10-26T06:15:48;15.60;;;11.27;;
4957;SDS011;2494;51.872;9.688;2022-10-26T06:18:38;17.33;;;13.23;;
4957;SDS011;2494;51.872;9.688;2022-10-26T06:21:30;18.20;;;13.00;;
4957;SDS011;2494;51.872;9.688;2022-10-26T06:24:23;15.57;;;11.27;;
4957;SDS011;2494;51.872;9.688;2022-10-26T06:27:11;18.60;;;13.30;;
4957;SDS011;2494;51.872;9.688;2022-10-26T06:30:00;18.10;;;13.30;;
4957;SDS011;2494;51.872;9.688;2022-10-26T06:32:47;19.17;;;13.60;;
4957;SDS011;2494;51.872;9.688;2022-10-26T06:35:34;15.90;;;12.00;;
4957;SDS011;2494;51.872;9.688;2022-10-26T06:38:21;19.87;;;11.67;;
4957;SDS011;2494;51.872;9.688;2022-10-26T06:41:07;20.33;;;12.63;;
4957;SDS011;2494;51.872;9.688;2022-10-26T06:43:52;14.37;;;10.90;;
4957;SDS011;2494;51.872;9.688;2022-10-26T06:46:38;14.43;;;11.23;;
4957;SDS011;2494;51.872;9.688;2022-10-26T06:49:28;12.60;;;10.10;;
4957;SDS011;2494;51.872;9.688;2022-10-26T06:52:14;13.80;;;10.80;;
4957;SDS011;2494;51.872;9.688;2022-10-26T06:55:02;16.70;;;11.17;;
4957;SDS011;2494;51.872;9.688;2022-10-26T06:57:47;15.93;;;11.97;;
4957;SDS011;2494;51.872;9.688;2022-10-26T07:00:32;13.10;;;9.37;;
4957;SDS011;2494;51.872;9.688;2022-10-26T07:03:18;14.83;;;9.60;;
4957;SDS011;2494;51.872;9.688;2022-10-26T07:06:05;13.20;;;9.27;;
4957;SDS011;2494;51.872;9.688;2022-10-26T07:08:50;17.27;;;11.00;;
4957;SDS011;2494;51.872;9.688;2022-10-26T07:11:35;12.90;;;10.57;;
4957;SDS011;2494;51.872;9.688;2022-10-26T07:14:21;12.70;;;10.90;;
4957;SDS011;2494;51.872;9.688;2022-10-26T07:17:06;12.83;;;11.43;;
4957;SDS011;2494;51.872;9.688;2022-10-26T07:19:52;16.87;;;11.43;;
4957;SDS011;2494;51.872;9.688;2022-10-26T07:22:39;15.13;;;11.50;;
4957;SDS011;2494;51.872;9.688;2022-10-26T07:25:26;10.90;;;9.77;;
4957;SDS011;2494;51.872;9.688;2022-10-26T07:28:11;13.20;;;11.07;;
4957;SDS011;2494;51.872;9.688;2022-10-26T07:30:57;12.27;;;11.07;;
4957;SDS011;2494;51.872;9.688;2022-10-26T07:33:42;16.87;;;12.20;;
4957;SDS011;2494;51.872;9.688;2022-10-26T07:36:27;18.77;;;12.70;;
4957;SDS011;2494;51.872;9.688;2022-10-26T07:39:14;17.97;;;14.03;;
4957;SDS011;2494;51.872;9.688;2022-10-26T07:41:59;15.27;;;11.00;;
4957;SDS011;2494;51.872;9.688;2022-10-26T07:44:44;20.63;;;12.30;;
4957;SDS011;2494;51.872;9.688;2022-10-26T07:47:30;14.03;;;11.10;;
4957;SDS011;2494;51.872;9.688;2022-10-26T07:50:15;13.00;;;10.90;;
4957;SDS011;2494;51.872;9.688;2022-10-26T07:53:00;11.83;;;9.90;;
4957;SDS011;2494;51.872;9.688;2022-10-26T07:55:52;11.97;;;9.63;;
4957;SDS011;2494;51.872;9.688;2022-10-26T07:58:38;10.80;;;9.77;;
4957;SDS011;2494;51.872;9.688;2022-10-26T08:01:23;9.90;;;9.10;;
4957;SDS011;2494;51.872;9.688;2022-10-26T08:04:09;9.33;;;8.57;;
4957;SDS011;2494;51.872;9.688;2022-10-26T08:06:53;12.30;;;9.50;;
4957;SDS011;2494;51.872;9.688;2022-10-26T08:09:39;9.57;;;8.63;;
4957;SDS011;2494;51.872;9.688;2022-10-26T08:12:26;11.50;;;8.70;;
4957;SDS011;2494;51.872;9.688;2022-10-26T08:15:11;10.20;;;8.67;;
4957;SDS011;2494;51.872;9.688;2022-10-26T08:17:56;8.73;;;7.87;;
4957;SDS011;2494;51.872;9.688;2022-10-26T08:20:41;10.40;;;9.13;;
4957;SDS011;2494;51.872;9.688;2022-10-26T08:23:26;7.80;;;7.20;;
4957;SDS011;2494;51.872;9.688;2022-10-26T08:26:11;10.03;;;8.53;;
4957;SDS011;2494;51.872;9.688;2022-10-26T08:28:58;7.07;;;6.57;;
4957;SDS011;2494;51.872;9.688;2022-10-26T08:31:43;7.63;;;6.70;;
4957;SDS011;2494;51.872;9.688;2022-10-26T08:34:28;11.17;;;7.43;;
4957;SDS011;2494;51.872;9.688;2022-10-26T08:37:14;7.27;;;6.60;;
4957;SDS011;2494;51.872;9.688;2022-10-26T08:39:59;7.67;;;6.97;;
4957;SDS011;2494;51.872;9.688;2022-10-26T08:42:45;7.13;;;6.43;;
4957;SDS011;2494;51.872;9.688;2022-10-26T08:45:34;8.37;;;5.73;;
4957;SDS011;2494;51.872;9.688;2022-10-26T08:48:21;7.73;;;6.80;;
4957;SDS011;2494;51.872;9.688;2022-10-26T08:51:09;7.07;;;6.47;;
4957;SDS011;2494;51.872;9.688;2022-10-26T08:53:57;6.30;;;5.43;;
4957;SDS011;2494;51.872;9.688;2022-10-26T08:56:44;6.67;;;6.07;;
4957;SDS011;2494;51.872;9.688;2022-10-26T08:59:33;6.50;;;5.87;;
4957;SDS011;2494;51.872;9.688;2022-10-26T09:02:21;7.67;;;7.07;;
4957;SDS011;2494;51.872;9.688;2022-10-26T09:05:11;8.33;;;7.63;;
4957;SDS011;2494;51.872;9.688;2022-10-26T09:07:59;8.87;;;7.70;;
4957;SDS011;2494;51.872;9.688;2022-10-26T09:10:49;17.00;;;8.10;;
4957;SDS011;2494;51.872;9.688;2022-10-26T09:13:39;8.77;;;7.53;;
4957;SDS011;2494;51.872;9.688;2022-10-26T09:16:27;7.17;;;6.47;;
4957;SDS011;2494;51.872;9.688;2022-10-26T09:19:26;11.50;;;7.50;;
4957;SDS011;2494;51.872;9.688;2022-10-26T09:22:14;6.03;;;5.40;;
4957;SDS011;2494;51.872;9.688;2022-10-26T09:25:02;7.33;;;6.20;;
4957;SDS011;2494;51.872;9.688;2022-10-26T09:27:50;6.83;;;5.93;;
4957;SDS011;2494;51.872;9.688;2022-10-26T09:30:37;6.20;;;5.80;;
4957;SDS011;2494;51.872;9.688;2022-10-26T09:33:23;5.93;;;5.43;;
4957;SDS011;2494;51.872;9.688;2022-10-26T09:36:11;6.57;;;6.07;;
4957;SDS011;2494;51.872;9.688;2022-10-26T09:39:00;5.67;;;5.20;;
4957;SDS011;2494;51.872;9.688;2022-10-26T09:41:48;7.77;;;6.30;;
4957;SDS011;2494;51.872;9.688;2022-10-26T09:44:37;7.27;;;6.43;;
4957;SDS011;2494;51.872;9.688;2022-10-26T09:47:28;6.20;;;5.80;;
4957;SDS011;2494;51.872;9.688;2022-10-26T09:50:17;6.43;;;5.93;;
4957;SDS011;2494;51.872;9.688;2022-10-26T09:53:04;6.47;;;6.07;;
4957;SDS011;2494;51.872;9.688;2022-10-26T09:55:49;6.47;;;5.87;;
4957;SDS011;2494;51.872;9.688;2022-10-26T09:58:40;10.00;;;6.40;;
4957;SDS011;2494;51.872;9.688;2022-10-26T10:01:27;6.17;;;5.03;;
4957;SDS011;2494;51.872;9.688;2022-10-26T10:04:16;6.50;;;5.90;;
4957;SDS011;2494;51.872;9.688;2022-10-26T10:07:11;6.50;;;5.90;;
4957;SDS011;2494;51.872;9.688;2022-10-26T10:10:07;7.87;;;5.60;;
4957;SDS011;2494;51.872;9.688;2022-10-26T10:12:52;6.03;;;5.63;;
4957;SDS011;2494;51.872;9.688;2022-10-26T10:15:37;6.67;;;5.67;;
4957;SDS011;2494;51.872;9.688;2022-10-26T10:18:23;9.33;;;5.97;;
4957;SDS011;2494;51.872;9.688;2022-10-26T10:21:09;6.00;;;5.50;;
4957;SDS011;2494;51.872;9.688;2022-10-26T10:23:54;6.40;;;5.90;;
4957;SDS011;2494;51.872;9.688;2022-10-26T10:26:45;9.00;;;6.30;;
4957;SDS011;2494;51.872;9.688;2022-10-26T10:29:40;5.73;;;5.23;;
4957;SDS011;2494;51.872;9.688;2022-10-26T10:32:27;7.23;;;6.20;;
4957;SDS011;2494;51.872;9.688;2022-10-26T10:35:21;6.97;;;6.30;;
4957;SDS011;2494;51.872;9.688;2022-10-26T10:38:10;5.90;;;5.60;;
4957;SDS011;2494;51.872;9.688;2022-10-26T10:40:56;9.43;;;5.80;;
4957;SDS011;2494;51.872;9.688;2022-10-26T10:43:44;6.70;;;5.93;;
4957;SDS011;2494;51.872;9.688;2022-10-26T10:46:30;6.00;;;5.60;;
4957;SDS011;2494;51.872;9.688;2022-10-26T10:49:16;5.07;;;4.60;;
4957;SDS011;2494;51.872;9.688;2022-10-26T10:52:02;6.23;;;5.73;;
4957;SDS011;2494;51.872;9.688;2022-10-26T10:54:47;5.57;;;5.10;;
4957;SDS011;2494;51.872;9.688;2022-10-26T10:57:36;6.67;;;6.07;;
4957;SDS011;2494;51.872;9.688;2022-10-26T11:00:25;6.73;;;6.00;;
4957;SDS011;2494;51.872;9.688;2022-10-26T11:03:14;6.77;;;6.03;;
4957;SDS011;2494;51.872;9.688;2022-10-26T11:06:05;7.20;;;5.57;;
4957;SDS011;2494;51.872;9.688;2022-10-26T11:08:54;6.50;;;5.67;;
4957;SDS011;2494;51.872;9.688;2022-10-26T11:11:42;5.83;;;5.23;;
4957;SDS011;2494;51.872;9.688;2022-10-26T11:14:29;5.00;;;4.70;;
4957;SDS011;2494;51.872;9.688;2022-10-26T11:17:18;6.60;;;5.20;;
4957;SDS011;2494;51.872;9.688;2022-10-26T11:20:04;8.30;;;5.83;;
4957;SDS011;2494;51.872;9.688;2022-10-26T11:22:58;5.40;;;4.83;;
4957;SDS011;2494;51.872;9.688;2022-10-26T11:25:46;5.43;;;5.10;;
4957;SDS011;2494;51.872;9.688;2022-10-26T11:28:36;5.60;;;5.10;;
4957;SDS011;2494;51.872;9.688;2022-10-26T11:31:24;5.53;;;5.03;;
4957;SDS011;2494;51.872;9.688;2022-10-26T11:34:15;5.10;;;4.67;;
4957;SDS011;2494;51.872;9.688;2022-10-26T11:37:03;4.97;;;4.57;;
4957;SDS011;2494;51.872;9.688;2022-10-26T11:39:52;4.90;;;4.60;;
4957;SDS011;2494;51.872;9.688;2022-10-26T11:42:39;4.77;;;4.47;;
4957;SDS011;2494;51.872;9.688;2022-10-26T11:45:25;6.90;;;6.40;;
4957;SDS011;2494;51.872;9.688;2022-10-26T11:48:13;6.30;;;5.10;;
4957;SDS011;2494;51.872;9.688;2022-10-26T11:51:01;6.33;;;5.83;;
4957;SDS011;2494;51.872;9.688;2022-10-26T11:53:47;6.27;;;5.77;;
4957;SDS011;2494;51.872;9.688;2022-10-26T11:56:34;5.67;;;5.27;;
4957;SDS011;2494;51.872;9.688;2022-10-26T11:59:23;12.33;;;5.20;;
4957;SDS011;2494;51.872;9.688;2022-10-26T12:02:10;5.40;;;5.00;;
4957;SDS011;2494;51.872;9.688;2022-10-26T12:04:58;5.40;;;4.90;;
4957;SDS011;2494;51.872;9.688;2022-10-26T12:07:46;6.60;;;5.10;;
4957;SDS011;2494;51.872;9.688;2022-10-26T12:10:32;8.93;;;5.73;;
4957;SDS011;2494;51.872;9.688;2022-10-26T12:13:21;5.83;;;5.23;;
4957;SDS011;2494;51.872;9.688;2022-10-26T12:16:09;5.13;;;4.70;;
4957;SDS011;2494;51.872;9.688;2022-10-26T12:18:56;6.40;;;4.27;;
4957;SDS011;2494;51.872;9.688;2022-10-26T12:21:43;6.00;;;5.03;;
4957;SDS011;2494;51.872;9.688;2022-10-26T12:24:32;4.30;;;3.90;;
4957;SDS011;2494;51.872;9.688;2022-10-26T12:27:30;4.70;;;3.70;;
4957;SDS011;2494;51.872;9.688;2022-10-26T12:30:26;4.93;;;3.17;;
4957;SDS011;2494;51.872;9.688;2022-10-26T12:33:26;3.60;;;3.30;;
4957;SDS011;2494;51.872;9.688;2022-10-26T12:39:25;3.30;;;2.83;;
4957;SDS011;2494;51.872;9.688;2022-10-26T12:45:17;6.33;;;3.27;;
4957;SDS011;2494;51.872;9.688;2022-10-26T12:48:03;3.30;;;3.00;;
4957;SDS011;2494;51.872;9.688;2022-10-26T12:50:49;3.50;;;3.20;;
4957;SDS011;2494;51.872;9.688;2022-10-26T12:53:34;2.97;;;2.77;;
4957;SDS011;2494;51.872;9.688;2022-10-26T12:56:19;4.53;;;2.70;;
4957;SDS011;2494;51.872;9.688;2022-10-26T12:59:16;5.50;;;3.40;;
4957;SDS011;2494;51.872;9.688;2022-10-26T13:02:25;3.00;;;2.77;;
4957;SDS011;2494;51.872;9.688;2022-10-26T13:05:27;4.20;;;3.23;;
4957;SDS011;2494;51.872;9.688;2022-10-26T13:08:16;5.00;;;3.30;;
4957;SDS011;2494;51.872;9.688;2022-10-26T13:11:02;5.83;;;2.93;;
4957;SDS011;2494;51.872;9.688;2022-10-26T13:13:52;3.80;;;2.73;;
4957;SDS011;2494;51.872;9.688;2022-10-26T13:16:39;2.50;;;2.27;;
4957;SDS011;2494;51.872;9.688;2022-10-26T13:19:31;3.03;;;2.80;;
4957;SDS011;2494;51.872;9.688;2022-10-26T13:22:18;6.90;;;2.40;;
4957;SDS011;2494;51.872;9.688;2022-10-26T13:25:04;5.63;;;3.00;;
4957;SDS011;2494;51.872;9.688;2022-10-26T13:27:57;5.63;;;2.87;;
4957;SDS011;2494;51.872;9.688;2022-10-26T13:30:43;5.90;;;2.90;;
4957;SDS011;2494;51.872;9.688;2022-10-26T13:33:30;3.20;;;2.90;;
4957;SDS011;2494;51.872;9.688;2022-10-26T13:36:22;5.83;;;2.83;;
4957;SDS011;2494;51.872;9.688;2022-10-26T13:39:11;3.77;;;2.83;;
4957;SDS011;2494;51.872;9.688;2022-10-26T13:41:58;5.90;;;2.60;;
4957;SDS011;2494;51.872;9.688;2022-10-26T13:44:44;7.40;;;3.80;;
4957;SDS011;2494;51.872;9.688;2022-10-26T13:47:34;7.70;;;2.50;;
4957;SDS011;2494;51.872;9.688;2022-10-26T13:50:21;4.90;;;2.60;;
4957;SDS011;2494;51.872;9.688;2022-10-26T13:53:11;4.00;;;2.70;;
4957;SDS011;2494;51.872;9.688;2022-10-26T13:56:00;2.97;;;2.50;;
4957;SDS011;2494;51.872;9.688;2022-10-26T13:58:47;6.70;;;2.87;;
4957;SDS011;2494;51.872;9.688;2022-10-26T14:01:34;2.50;;;2.03;;
4957;SDS011;2494;51.872;9.688;2022-10-26T14:04:24;1.80;;;1.70;;
4957;SDS011;2494;51.872;9.688;2022-10-26T14:07:10;8.27;;;2.10;;
4957;SDS011;2494;51.872;9.688;2022-10-26T14:10:00;3.40;;;2.10;;
4957;SDS011;2494;51.872;9.688;2022-10-26T14:12:46;2.87;;;2.67;;
4957;SDS011;2494;51.872;9.688;2022-10-26T14:15:31;3.97;;;2.47;;
4957;SDS011;2494;51.872;9.688;2022-10-26T14:18:17;5.70;;;2.43;;
4957;SDS011;2494;51.872;9.688;2022-10-26T14:21:03;3.70;;;2.20;;
4957;SDS011;2494;51.872;9.688;2022-10-26T14:23:50;2.47;;;2.10;;
4957;SDS011;2494;51.872;9.688;2022-10-26T14:26:40;7.60;;;2.33;;
4957;SDS011;2494;51.872;9.688;2022-10-26T14:29:26;4.40;;;2.80;;
4957;SDS011;2494;51.872;9.688;2022-10-26T14:32:21;7.30;;;1.90;;
4957;SDS011;2494;51.872;9.688;2022-10-26T14:35:10;3.03;;;2.03;;
4957;SDS011;2494;51.872;9.688;2022-10-26T14:37:55;3.83;;;1.93;;
4957;SDS011;2494;51.872;9.688;2022-10-26T14:40:41;5.60;;;2.90;;
4957;SDS011;2494;51.872;9.688;2022-10-26T14:43:28;5.50;;;2.20;;
4957;SDS011;2494;51.872;9.688;2022-10-26T14:46:15;3.83;;;1.90;;
4957;SDS011;2494;51.872;9.688;2022-10-26T14:49:01;4.37;;;1.73;;
4957;SDS011;2494;51.872;9.688;2022-10-26T14:51:47;3.00;;;2.30;;
4957;SDS011;2494;51.872;9.688;2022-10-26T14:54:32;5.70;;;2.30;;
4957;SDS011;2494;51.872;9.688;2022-10-26T14:57:27;3.70;;;2.20;;
4957;SDS011;2494;51.872;9.688;2022-10-26T15:00:15;3.73;;;2.13;;
4957;SDS011;2494;51.872;9.688;2022-10-26T15:03:01;5.50;;;2.00;;
4957;SDS011;2494;51.872;9.688;2022-10-26T15:05:47;6.77;;;2.67;;
4957;SDS011;2494;51.872;9.688;2022-10-26T15:08:39;9.97;;;4.30;;
4957;SDS011;2494;51.872;9.688;2022-10-26T15:11:25;2.50;;;2.30;;
4957;SDS011;2494;51.872;9.688;2022-10-26T15:14:10;4.80;;;2.37;;
4957;SDS011;2494;51.872;9.688;2022-10-26T15:16:57;5.47;;;3.30;;
4957;SDS011;2494;51.872;9.688;2022-10-26T15:19:43;9.70;;;4.70;;
4957;SDS011;2494;51.872;9.688;2022-10-26T15:22:28;5.00;;;3.73;;
4957;SDS011;2494;51.872;9.688;2022-10-26T15:25:15;2.93;;;2.73;;
4957;SDS011;2494;51.872;9.688;2022-10-26T15:28:10;3.73;;;2.50;;
4957;SDS011;2494;51.872;9.688;2022-10-26T15:31:02;4.83;;;2.60;;
4957;SDS011;2494;51.872;9.688;2022-10-26T15:36:49;4.97;;;2.80;;
4957;SDS011;2494;51.872;9.688;2022-10-26T15:39:34;4.40;;;3.57;;
4957;SDS011;2494;51.872;9.688;2022-10-26T15:42:20;8.43;;;3.40;;
4957;SDS011;2494;51.872;9.688;2022-10-26T15:45:11;2.60;;;2.40;;
4957;SDS011;2494;51.872;9.688;2022-10-26T15:47:58;3.67;;;2.50;;
4957;SDS011;2494;51.872;9.688;2022-10-26T15:50:43;3.03;;;2.40;;
4957;SDS011;2494;51.872;9.688;2022-10-26T15:53:30;5.50;;;2.27;;
4957;SDS011;2494;51.872;9.688;2022-10-26T15:56:16;2.80;;;2.60;;
4957;SDS011;2494;51.872;9.688;2022-10-26T15:59:02;6.60;;;2.70;;
4957;SDS011;2494;51.872;9.688;2022-10-26T16:01:47;4.03;;;3.37;;
4957;SDS011;2494;51.872;9.688;2022-10-26T16:04:34;12.10;;;5.13;;
4957;SDS011;2494;51.872;9.688;2022-10-26T16:07:20;8.40;;;6.20;;
4957;SDS011;2494;51.872;9.688;2022-10-26T16:10:10;8.57;;;5.83;;
4957;SDS011;2494;51.872;9.688;2022-10-26T16:12:56;5.40;;;2.87;;
4957;SDS011;2494;51.872;9.688;2022-10-26T16:15:41;4.30;;;3.53;;
4957;SDS011;2494;51.872;9.688;2022-10-26T16:18:27;6.17;;;5.67;;
4957;SDS011;2494;51.872;9.688;2022-10-26T16:21:13;10.90;;;7.10;;
4957;SDS011;2494;51.872;9.688;2022-10-26T16:23:59;12.10;;;6.20;;
4957;SDS011;2494;51.872;9.688;2022-10-26T16:26:46;14.87;;;9.67;;
4957;SDS011;2494;51.872;9.688;2022-10-26T16:29:31;8.90;;;5.03;;
4957;SDS011;2494;51.872;9.688;2022-10-26T16:32:16;4.73;;;4.20;;
4957;SDS011;2494;51.872;9.688;2022-10-26T16:35:02;9.37;;;5.33;;
4957;SDS011;2494;51.872;9.688;2022-10-26T16:37:47;12.13;;;4.37;;
4957;SDS011;2494;51.872;9.688;2022-10-26T16:40:33;8.60;;;4.90;;
4957;SDS011;2494;51.872;9.688;2022-10-26T16:43:20;6.30;;;4.90;;
4957;SDS011;2494;51.872;9.688;2022-10-26T16:46:05;9.30;;;6.00;;
4957;SDS011;2494;51.872;9.688;2022-10-26T16:48:51;13.60;;;5.50;;
4957;SDS011;2494;51.872;9.688;2022-10-26T16:51:36;8.50;;;6.17;;
4957;SDS011;2494;51.872;9.688;2022-10-26T16:54:22;6.97;;;6.30;;
4957;SDS011;2494;51.872;9.688;2022-10-26T16:57:08;9.93;;;4.70;;
4957;SDS011;2494;51.872;9.688;2022-10-26T16:59:55;9.87;;;4.87;;
4957;SDS011;2494;51.872;9.688;2022-10-26T17:02:41;12.13;;;10.03;;
4957;SDS011;2494;51.872;9.688;2022-10-26T17:05:26;6.40;;;5.90;;
4957;SDS011;2494;51.872;9.688;2022-10-26T17:08:12;5.57;;;5.07;;
4957;SDS011;2494;51.872;9.688;2022-10-26T17:11:00;8.23;;;7.30;;
4957;SDS011;2494;51.872;9.688;2022-10-26T17:13:46;6.20;;;5.40;;
4957;SDS011;2494;51.872;9.688;2022-10-26T17:16:33;5.90;;;4.70;;
4957;SDS011;2494;51.872;9.688;2022-10-26T17:19:18;6.83;;;5.80;;
4957;SDS011;2494;51.872;9.688;2022-10-26T17:22:03;11.17;;;6.03;;